createdAt,value
2018-04-11T00:02:24.424Z,72.62
2018-04-11T00:04:52.848Z,72.56
2018-04-11T00:07:21.323Z,72.35
2018-04-11T00:09:49.760Z,72.33
2018-04-11T00:12:18.181Z,72.22
2018-04-11T00:14:46.653Z,72.21
2018-04-11T00:17:15.068Z,72.12
2018-04-11T00:19:43.483Z,71.96
2018-04-11T00:22:12.105Z,72.30
2018-04-11T00:24:40.521Z,72.49
2018-04-11T00:27:08.931Z,72.73
2018-04-11T00:29:37.381Z,72.96
2018-04-11T00:32:05.798Z,73.09
2018-04-11T00:34:34.236Z,73.47
2018-04-11T00:37:02.688Z,73.53
2018-04-11T00:39:31.101Z,73.52
2018-04-11T00:41:59.513Z,73.57
2018-04-11T00:44:27.973Z,73.68
2018-04-11T00:46:56.397Z,73.65
2018-04-11T00:49:24.809Z,73.69
2018-04-11T00:51:53.269Z,73.58
2018-04-11T00:54:21.688Z,73.56
2018-04-11T00:56:50.117Z,73.97
2018-04-11T00:59:18.570Z,73.74
2018-04-11T01:01:46.984Z,73.85
2018-04-11T01:04:15.400Z,73.72
2018-04-11T01:06:43.852Z,73.61
2018-04-11T01:09:12.256Z,73.51
2018-04-11T01:11:40.675Z,73.81
2018-04-11T01:14:09.132Z,73.87
2018-04-11T01:16:37.549Z,74.05
2018-04-11T01:19:05.968Z,74.25
2018-04-11T01:21:34.421Z,74.53
2018-04-11T01:24:02.840Z,74.63
2018-04-11T01:26:31.258Z,74.58
2018-04-11T01:28:59.746Z,74.78
2018-04-11T01:31:28.157Z,75.27
2018-04-11T01:33:56.568Z,75.58
2018-04-11T01:36:25.032Z,75.56
2018-04-11T01:38:53.445Z,75.92
2018-04-11T01:41:21.856Z,76.03
2018-04-11T01:43:50.326Z,76.17
2018-04-11T01:46:18.736Z,76.67
2018-04-11T01:48:47.152Z,76.58
2018-04-11T01:51:15.607Z,76.73
2018-04-11T01:53:44.013Z,76.98
2018-04-11T01:56:12.416Z,77.45
2018-04-11T01:58:40.877Z,77.39
2018-04-11T02:01:09.288Z,77.10
2018-04-11T02:03:37.698Z,77.01
2018-04-11T02:06:06.158Z,77.23
2018-04-11T02:08:34.571Z,77.01
2018-04-11T02:11:02.992Z,76.75
2018-04-11T02:13:31.451Z,76.75
2018-04-11T02:15:59.883Z,76.55
2018-04-11T02:18:28.307Z,76.41
2018-04-11T02:20:56.761Z,76.75
2018-04-11T02:23:25.199Z,76.72
2018-04-11T02:25:53.613Z,76.44
2018-04-11T02:28:22.072Z,76.71
2018-04-11T02:30:50.481Z,77.06
2018-04-11T02:33:18.886Z,76.66
2018-04-11T02:35:47.341Z,77.01
2018-04-11T02:38:15.749Z,76.81
2018-04-11T02:40:44.160Z,76.99
2018-04-11T02:43:12.768Z,76.95
2018-04-11T02:45:41.172Z,76.84
2018-04-11T02:48:09.581Z,76.71
2018-04-11T02:50:38.045Z,76.86
2018-04-11T02:53:06.454Z,76.73
2018-04-11T02:55:34.865Z,76.42
2018-04-11T02:58:03.324Z,76.46
2018-04-11T03:00:31.734Z,76.67
2018-04-11T03:03:00.145Z,76.83
2018-04-11T03:05:28.607Z,77.11
2018-04-11T03:07:57.018Z,76.99
2018-04-11T03:10:25.429Z,76.86
2018-04-11T03:12:53.888Z,76.84
2018-04-11T03:15:22.299Z,76.68
2018-04-11T03:17:50.708Z,76.75
2018-04-11T03:20:19.177Z,76.61
2018-04-11T03:22:47.590Z,76.50
2018-04-11T03:25:16.031Z,77.06
2018-04-11T03:27:44.489Z,76.79
2018-04-11T03:30:12.901Z,76.58
2018-04-11T03:32:41.312Z,76.58
2018-04-11T03:35:09.785Z,76.29
2018-04-11T03:37:38.201Z,76.42
2018-04-11T03:40:06.620Z,76.40
2018-04-11T03:42:35.075Z,76.03
2018-04-11T03:45:03.494Z,75.86
2018-04-11T03:47:31.907Z,75.76
2018-04-11T03:50:00.365Z,75.54
2018-04-11T03:52:28.775Z,75.81
2018-04-11T03:54:57.189Z,75.87
2018-04-11T03:57:25.822Z,76.40
2018-04-11T03:59:54.232Z,77.11
2018-04-11T04:02:22.639Z,77.58
2018-04-11T04:04:51.088Z,77.93
2018-04-11T04:07:19.506Z,78.06
2018-04-11T04:09:47.911Z,78.16
2018-04-11T04:12:16.365Z,78.29
2018-04-11T04:14:56.600Z,77.95
2018-04-11T04:17:36.867Z,78.20
2018-04-11T04:20:28.892Z,77.68
2018-04-11T04:22:57.338Z,77.37
2018-04-11T04:25:25.760Z,76.80
2018-04-11T04:27:54.174Z,76.90
2018-04-11T04:30:22.644Z,76.77
2018-04-11T04:32:51.093Z,76.49
2018-04-11T04:35:19.495Z,76.41
2018-04-11T04:37:47.947Z,77.06
2018-04-11T04:40:16.374Z,76.73
2018-04-11T04:42:44.789Z,77.19
2018-04-11T04:45:13.262Z,76.84
2018-04-11T04:47:41.678Z,76.60
2018-04-11T04:50:10.090Z,76.35
2018-04-11T04:52:38.603Z,76.36
2018-04-11T04:55:07.019Z,76.57
2018-04-11T04:57:35.432Z,76.54
2018-04-11T05:00:03.928Z,76.57
2018-04-11T05:02:32.353Z,76.45
2018-04-11T05:05:00.881Z,77.00
2018-04-11T05:07:29.344Z,76.86
2018-04-11T05:09:57.750Z,77.11
2018-04-11T05:12:26.161Z,77.13
2018-04-11T05:14:54.626Z,77.26
2018-04-11T05:17:23.032Z,77.07
2018-04-11T05:19:51.475Z,77.60
2018-04-11T05:22:19.928Z,77.02
2018-04-11T05:24:48.363Z,77.16
2018-04-11T05:27:16.833Z,77.12
2018-04-11T05:29:45.264Z,76.89
2018-04-11T05:32:13.720Z,77.09
2018-04-11T05:34:42.133Z,77.00
2018-04-11T05:37:10.597Z,76.85
2018-04-11T05:39:39.008Z,76.45
2018-04-11T05:42:07.422Z,77.09
2018-04-11T05:44:35.876Z,76.61
2018-04-11T05:47:04.284Z,76.47
2018-04-11T05:49:32.692Z,76.71
2018-04-11T05:52:01.144Z,76.16
2018-04-11T05:54:29.563Z,76.19
2018-04-11T05:56:57.990Z,76.62
2018-04-11T05:59:26.460Z,76.60
2018-04-11T06:01:54.877Z,77.08
2018-04-11T06:04:23.289Z,77.01
2018-04-11T06:06:51.833Z,77.52
2018-04-11T06:09:20.245Z,77.45
2018-04-11T06:11:48.661Z,77.56
2018-04-11T06:14:17.136Z,77.52
2018-04-11T06:16:45.548Z,77.29
2018-04-11T06:19:13.987Z,77.48
2018-04-11T06:21:42.447Z,77.37
2018-04-11T06:24:10.859Z,77.60
2018-04-11T06:26:39.268Z,77.41
2018-04-11T06:29:07.738Z,77.01
2018-04-11T06:31:36.152Z,76.95
2018-04-11T06:34:04.573Z,76.66
2018-04-11T06:36:33.020Z,77.22
2018-04-11T06:39:01.473Z,77.13
2018-04-11T06:41:30.232Z,77.01
2018-04-11T06:43:58.851Z,76.90
2018-04-11T06:46:27.267Z,76.76
2018-04-11T06:48:55.730Z,76.95
2018-04-11T06:51:24.205Z,77.07
2018-04-11T06:53:52.655Z,76.91
2018-04-11T06:56:21.077Z,77.22
2018-04-11T06:58:49.543Z,77.05
2018-04-11T07:01:17.997Z,77.00
2018-04-11T07:03:46.415Z,76.96
2018-04-11T07:06:14.869Z,77.04
2018-04-11T07:08:43.284Z,76.55
2018-04-11T07:11:11.700Z,76.70
2018-04-11T07:13:40.144Z,77.07
2018-04-11T07:16:08.560Z,77.09
2018-04-11T07:18:36.970Z,76.77
2018-04-11T07:21:05.423Z,76.56
2018-04-11T07:23:33.837Z,76.20
2018-04-11T07:26:02.258Z,75.84
2018-04-11T07:28:30.741Z,75.87
2018-04-11T07:30:59.149Z,75.53
2018-04-11T07:33:27.568Z,75.31
2018-04-11T07:35:56.022Z,74.77
2018-04-11T07:38:24.436Z,75.14
2018-04-11T07:40:52.845Z,74.72
2018-04-11T07:43:21.299Z,74.39
2018-04-11T07:45:49.716Z,74.43
2018-04-11T07:48:18.157Z,73.72
2018-04-11T07:50:46.615Z,73.92
2018-04-11T07:53:15.033Z,73.89
2018-04-11T07:55:43.449Z,73.44
2018-04-11T07:58:11.902Z,73.83
2018-04-11T08:00:40.320Z,73.06
2018-04-11T08:03:08.750Z,73.23
2018-04-11T08:05:37.227Z,72.89
2018-04-11T08:08:05.653Z,73.15
2018-04-11T08:10:34.069Z,73.24
2018-04-11T08:13:02.517Z,73.44
2018-04-11T08:15:30.933Z,73.41
2018-04-11T08:17:59.344Z,72.52
2018-04-11T08:20:27.855Z,71.95
2018-04-11T08:22:56.273Z,71.71
2018-04-11T08:25:24.684Z,70.53
2018-04-11T08:27:53.154Z,69.68
2018-04-11T08:30:21.568Z,68.96
2018-04-11T08:32:50.006Z,67.84
2018-04-11T08:35:18.456Z,67.82
2018-04-11T08:37:46.873Z,68.95
2018-04-11T08:40:15.288Z,69.75
2018-04-11T08:42:43.752Z,68.94
2018-04-11T08:45:12.164Z,68.22
2018-04-11T08:47:40.576Z,67.67
2018-04-11T08:50:09.029Z,67.81
2018-04-11T08:52:37.539Z,66.78
2018-04-11T08:55:05.883Z,66.39
2018-04-11T08:57:34.357Z,66.83
2018-04-11T09:00:02.773Z,67.09
2018-04-11T09:02:31.202Z,65.67
2018-04-11T09:04:59.673Z,65.10
2018-04-11T09:07:28.090Z,65.84
2018-04-11T09:09:56.509Z,65.16
2018-04-11T09:12:24.986Z,65.43
2018-04-11T09:14:53.397Z,65.15
2018-04-11T09:17:21.804Z,65.11
2018-04-11T09:19:50.269Z,65.66
2018-04-11T09:22:18.684Z,66.33
2018-04-11T09:24:47.104Z,66.78
2018-04-11T09:27:15.559Z,67.00
2018-04-11T09:32:11.476Z,66.31
2018-04-11T09:34:39.936Z,65.50
2018-04-11T09:37:08.350Z,64.97
2018-04-11T09:39:36.760Z,64.70
2018-04-11T09:42:05.212Z,64.77
2018-04-11T09:44:33.629Z,65.13
2018-04-11T09:47:02.041Z,65.76
2018-04-11T09:49:30.537Z,65.96
2018-04-11T09:51:58.965Z,65.89
2018-04-11T09:54:27.388Z,66.34
2018-04-11T09:56:55.858Z,66.19
2018-04-11T09:59:24.289Z,66.36
2018-04-11T10:01:52.710Z,66.71
2018-04-11T10:04:21.179Z,66.44
2018-04-11T10:06:50.504Z,66.08
2018-04-11T10:09:18.937Z,65.37
2018-04-11T10:11:47.393Z,65.53
2018-04-11T10:14:15.806Z,64.58
2018-04-11T10:16:44.249Z,64.81
2018-04-11T10:19:12.704Z,63.44
2018-04-11T10:21:41.136Z,64.22
2018-04-11T10:24:09.568Z,63.30
2018-04-11T10:26:38.025Z,64.16
2018-04-11T10:29:06.446Z,64.96
2018-04-11T10:31:34.868Z,64.53
2018-04-11T10:34:03.349Z,64.60
2018-04-11T10:36:31.764Z,64.67
2018-04-11T10:39:00.182Z,65.81
2018-04-11T10:41:28.639Z,65.37
2018-04-11T10:43:57.053Z,65.61
2018-04-11T10:46:25.468Z,65.49
2018-04-11T10:48:53.921Z,65.58
2018-04-11T10:51:22.337Z,65.86
2018-04-11T10:53:50.780Z,65.16
2018-04-11T10:56:19.244Z,65.36
2018-04-11T10:58:47.661Z,66.01
2018-04-11T11:01:16.076Z,66.04
2018-04-11T11:03:44.529Z,66.20
2018-04-11T11:06:12.969Z,66.61
2018-04-11T11:08:41.384Z,66.56
2018-04-11T11:11:09.841Z,66.55
2018-04-11T11:13:38.285Z,66.66
2018-04-11T11:16:06.703Z,66.72
2018-04-11T11:18:35.180Z,66.81
2018-04-11T11:21:03.648Z,66.68
2018-04-11T11:23:32.081Z,67.08
2018-04-11T11:26:00.555Z,66.83
2018-04-11T11:28:28.972Z,67.15
2018-04-11T11:30:57.384Z,67.41
2018-04-11T11:33:25.877Z,67.18
2018-04-11T11:35:54.309Z,68.01
2018-04-11T11:38:22.720Z,68.34
2018-04-11T11:40:51.192Z,68.05
2018-04-11T11:43:19.644Z,68.35
2018-04-11T11:45:48.060Z,68.30
2018-04-11T11:48:16.517Z,68.15
2018-04-11T11:50:44.937Z,68.42
2018-04-11T11:53:13.360Z,68.69
2018-04-11T11:55:41.824Z,68.40
2018-04-11T11:58:10.231Z,68.61
2018-04-11T12:00:38.653Z,67.84
2018-04-11T12:03:07.101Z,66.25
2018-04-11T12:05:35.546Z,65.83
2018-04-11T12:08:03.989Z,65.45
2018-04-11T12:10:32.451Z,65.43
2018-04-11T12:13:00.865Z,63.94
2018-04-11T12:15:29.283Z,64.05
2018-04-11T12:17:57.754Z,64.68
2018-04-11T12:20:26.166Z,65.54
2018-04-11T12:22:54.586Z,66.34
2018-04-11T12:25:23.070Z,66.84
2018-04-11T12:27:51.492Z,67.41
2018-04-11T12:30:19.908Z,67.39
2018-04-11T12:32:48.373Z,67.53
2018-04-11T12:35:16.792Z,67.60
2018-04-11T12:37:45.208Z,67.05
2018-04-11T12:40:13.676Z,67.26
2018-04-11T12:42:42.092Z,67.03
2018-04-11T12:45:10.505Z,66.22
2018-04-11T12:47:38.960Z,65.84
2018-04-11T12:50:07.373Z,64.91
2018-04-11T12:52:35.784Z,63.85
2018-04-11T12:55:04.242Z,63.44
2018-04-11T12:57:32.684Z,63.36
2018-04-11T13:00:01.099Z,62.80
2018-04-11T13:02:29.552Z,62.06
2018-04-11T13:04:57.971Z,61.96
2018-04-11T13:07:26.388Z,62.32
2018-04-11T13:09:54.871Z,62.87
2018-04-11T13:12:23.304Z,62.78
2018-04-11T13:14:51.747Z,63.57
2018-04-11T13:17:20.201Z,64.17
2018-04-11T13:19:48.622Z,64.28
2018-04-11T13:22:17.043Z,64.23
2018-04-11T13:24:45.513Z,64.84
2018-04-11T13:27:13.924Z,64.74
2018-04-11T13:29:42.337Z,65.38
2018-04-11T13:32:10.795Z,65.34
2018-04-11T13:34:39.232Z,65.25
2018-04-11T13:37:07.668Z,65.43
2018-04-11T13:39:36.126Z,65.34
2018-04-11T13:42:04.541Z,65.59
2018-04-11T13:44:32.984Z,66.07
2018-04-11T13:47:01.712Z,65.68
2018-04-11T13:49:30.125Z,65.21
2018-04-11T13:51:58.548Z,65.55
2018-04-11T13:54:27.016Z,65.51
2018-04-11T13:56:55.429Z,65.24
2018-04-11T13:59:23.844Z,65.03
2018-04-11T14:01:52.325Z,64.69
2018-04-11T14:04:20.764Z,65.77
2018-04-11T14:06:49.186Z,65.91
2018-04-11T14:09:17.665Z,65.56
2018-04-11T14:11:46.076Z,66.10
2018-04-11T14:14:14.504Z,67.38
2018-04-11T14:16:42.985Z,68.16
2018-04-11T14:19:11.404Z,68.62
2018-04-11T14:21:39.848Z,70.87
2018-04-11T14:24:08.317Z,71.61
2018-04-11T14:26:36.740Z,71.48
2018-04-11T14:29:05.175Z,71.72
2018-04-11T14:31:33.687Z,71.61
2018-04-11T14:34:02.080Z,71.63
2018-04-11T14:36:30.498Z,72.68
2018-04-11T14:38:58.949Z,73.32
2018-04-11T14:41:27.366Z,73.93
2018-04-11T14:43:55.776Z,75.68
2018-04-11T14:46:24.244Z,75.56
2018-04-11T14:48:52.655Z,75.54
2018-04-11T14:51:21.065Z,75.65
2018-04-11T14:53:49.529Z,76.02
2018-04-11T14:56:17.949Z,76.46
2018-04-11T14:58:46.364Z,76.57
2018-04-11T15:01:14.828Z,76.67
2018-04-11T15:03:43.240Z,77.21
2018-04-11T15:06:11.656Z,76.84
2018-04-11T15:08:40.105Z,76.96
2018-04-11T15:11:08.519Z,78.34
2018-04-11T15:13:36.929Z,77.78
2018-04-11T15:16:05.380Z,77.59
2018-04-11T15:18:33.792Z,77.43
2018-04-11T15:21:02.207Z,76.68
2018-04-11T15:23:30.671Z,77.94
2018-04-11T15:25:59.090Z,77.33
2018-04-11T15:28:27.505Z,77.39
2018-04-11T15:30:55.961Z,77.65
2018-04-11T15:33:24.373Z,77.93
2018-04-11T15:35:52.783Z,78.44
2018-04-11T15:38:21.232Z,78.28
2018-04-11T15:40:49.649Z,78.60
2018-04-11T15:43:18.056Z,78.42
2018-04-11T15:45:46.528Z,78.29
2018-04-11T15:48:14.948Z,78.46
2018-04-11T15:50:43.415Z,78.26
2018-04-11T15:53:11.876Z,100.00
2018-04-11T15:55:40.311Z,100.00
2018-04-11T15:58:08.749Z,100.00
2018-04-11T16:00:37.224Z,77.55
2018-04-11T16:03:05.672Z,100.00
2018-04-11T16:05:34.107Z,100.00
2018-04-11T16:08:02.580Z,100.00
2018-04-11T16:10:31.028Z,100.00
2018-04-11T16:12:59.464Z,100.00
2018-04-11T16:15:27.959Z,100.00
2018-04-11T16:17:56.400Z,100.00
2018-04-11T16:20:24.832Z,100.00
2018-04-11T16:22:53.307Z,100.00
2018-04-11T16:25:21.752Z,100.00
2018-04-11T16:27:50.198Z,100.00
2018-04-11T16:30:18.672Z,100.00
2018-04-11T16:32:47.108Z,100.00
2018-04-11T16:35:15.579Z,100.00
2018-04-11T16:37:44.080Z,100.00
2018-04-11T16:40:12.549Z,100.00
2018-04-11T16:42:40.995Z,100.00
2018-04-11T16:45:09.481Z,100.00
2018-04-11T16:47:37.936Z,100.00
2018-04-11T16:50:06.374Z,100.00
2018-04-11T16:52:34.869Z,100.00
2018-04-11T16:55:03.307Z,100.00
2018-04-11T16:57:31.752Z,100.00
2018-04-11T17:00:00.237Z,100.00
2018-04-11T17:02:28.673Z,100.00
2018-04-11T17:04:57.109Z,100.00
2018-04-11T17:07:25.596Z,100.00
2018-04-11T17:09:54.051Z,100.00
2018-04-11T17:12:22.511Z,100.00
2018-04-11T17:14:51.004Z,100.00
2018-04-11T17:17:19.469Z,100.00
2018-04-11T17:19:47.932Z,100.00
2018-04-11T17:22:28.094Z,100.00
2018-04-11T17:25:08.236Z,100.00
2018-04-11T17:27:48.521Z,100.00
2018-04-11T17:30:28.700Z,100.00
2018-04-11T17:32:57.177Z,100.00
2018-04-11T17:35:25.633Z,100.00
2018-04-11T17:37:54.068Z,100.00
2018-04-11T17:40:22.560Z,100.00
2018-04-11T17:42:50.997Z,100.00
2018-04-11T17:45:19.454Z,100.00
2018-04-11T17:47:47.945Z,100.00
2018-04-11T17:50:16.411Z,100.00
2018-04-11T17:52:44.856Z,100.00
2018-04-11T17:55:13.332Z,100.00
2018-04-11T17:57:41.777Z,100.00
2018-04-11T18:00:10.221Z,100.00
2018-04-11T18:02:38.713Z,100.00
2018-04-11T18:05:07.159Z,100.00
2018-04-11T18:07:35.597Z,100.00
2018-04-11T18:10:04.110Z,100.00
2018-04-11T18:12:32.557Z,100.00
2018-04-11T18:15:01.003Z,100.00
2018-04-11T18:17:29.529Z,100.00
2018-04-11T18:19:57.973Z,100.00
2018-04-11T18:22:26.485Z,100.00
2018-04-11T18:24:54.972Z,100.00
2018-04-11T18:27:23.427Z,100.00
2018-04-11T18:29:51.874Z,100.00
2018-04-11T18:32:20.369Z,100.00
2018-04-11T18:34:48.824Z,100.00
2018-04-11T18:37:17.257Z,100.00
2018-04-11T18:39:45.754Z,100.00
2018-04-11T18:42:14.196Z,100.00
2018-04-11T18:44:42.645Z,100.00
2018-04-11T18:47:11.125Z,100.00
2018-04-11T18:49:39.568Z,100.00
2018-04-11T18:52:08.025Z,100.00
2018-04-11T18:54:36.512Z,100.00
2018-04-11T18:57:04.961Z,100.00
2018-04-11T18:59:33.408Z,100.00
2018-04-11T19:02:01.894Z,100.00
2018-04-11T19:04:30.340Z,100.00
2018-04-11T19:09:00.085Z,82.92
2018-04-11T19:11:28.500Z,83.16
2018-04-11T19:13:56.915Z,83.43
2018-04-11T19:16:25.414Z,83.86
2018-04-11T19:18:53.868Z,83.90
2018-04-11T19:21:22.305Z,84.17
2018-04-11T19:23:50.786Z,84.24
2018-04-11T19:26:19.228Z,84.33
2018-04-11T19:28:47.636Z,84.71
2018-04-11T19:31:16.111Z,84.44
2018-04-11T19:33:44.534Z,84.55
2018-04-11T19:36:13.041Z,84.49
2018-04-11T19:38:41.521Z,84.79
2018-04-11T19:41:09.956Z,85.12
2018-04-11T19:43:38.440Z,85.17
2018-04-11T19:46:06.921Z,85.10
2018-04-11T19:48:35.360Z,84.97
2018-04-11T19:51:03.808Z,85.28
2018-04-11T19:53:32.274Z,85.33
2018-04-11T19:56:00.685Z,85.34
2018-04-11T19:58:29.120Z,85.60
2018-04-11T20:00:57.651Z,85.71
2018-04-11T20:03:26.098Z,85.58
2018-04-11T20:05:54.508Z,85.69
2018-04-11T20:08:22.968Z,85.73
2018-04-11T20:10:51.381Z,86.25
2018-04-11T20:13:19.816Z,86.47
2018-04-11T20:15:48.312Z,86.58
2018-04-11T20:18:16.798Z,86.27
2018-04-11T20:20:45.226Z,86.81
2018-04-11T20:23:13.700Z,87.08
2018-04-11T20:25:42.117Z,87.33
2018-04-11T20:28:10.560Z,86.83
2018-04-11T20:30:39.038Z,86.64
2018-04-11T20:33:07.450Z,86.25
2018-04-11T20:35:35.864Z,85.98
2018-04-11T20:38:04.337Z,85.47
2018-04-11T20:40:32.763Z,85.13
2018-04-11T20:43:01.173Z,84.87
2018-04-11T20:45:29.641Z,85.09
2018-04-11T20:47:58.112Z,84.91
2018-04-11T20:50:26.528Z,84.06
2018-04-11T20:52:54.999Z,84.16
2018-04-11T20:55:23.422Z,83.85
2018-04-11T20:57:51.837Z,83.90
2018-04-11T21:00:20.287Z,84.25
2018-04-11T21:02:48.697Z,84.13
2018-04-11T21:05:17.136Z,84.56
2018-04-11T21:07:45.589Z,84.63
2018-04-11T21:10:14.000Z,85.15
2018-04-11T21:12:42.408Z,85.63
2018-04-11T21:15:10.921Z,85.37
2018-04-11T21:17:39.316Z,85.44
2018-04-11T21:20:07.732Z,85.37
2018-04-11T21:22:36.180Z,85.54
2018-04-11T21:25:04.613Z,85.53
2018-04-11T21:27:33.077Z,85.35
2018-04-11T21:30:01.549Z,85.12
2018-04-11T21:32:30.060Z,84.99
2018-04-11T21:34:58.480Z,84.71
2018-04-11T21:37:26.949Z,84.72
2018-04-11T21:39:55.356Z,84.39
2018-04-11T21:42:23.768Z,84.52
2018-04-11T21:44:52.216Z,84.98
2018-04-11T21:47:20.629Z,84.52
2018-04-11T21:49:49.049Z,84.51
2018-04-11T21:52:17.500Z,84.28
2018-04-11T21:54:45.929Z,84.42
2018-04-11T21:57:14.344Z,84.37
2018-04-11T21:59:42.792Z,84.78
2018-04-11T22:02:11.207Z,84.85
2018-04-11T22:04:39.625Z,84.92
2018-04-11T22:07:08.083Z,85.07
2018-04-11T22:09:36.497Z,85.16
2018-04-11T22:12:04.908Z,84.99
2018-04-11T22:14:33.379Z,85.25
2018-04-11T22:17:01.797Z,85.45
2018-04-11T22:19:30.213Z,85.81
2018-04-11T22:21:58.681Z,86.18
2018-04-11T22:24:27.102Z,86.01
2018-04-11T22:26:55.545Z,85.94
2018-04-11T22:29:24.007Z,85.68
2018-04-11T22:31:52.420Z,86.03
2018-04-11T22:34:20.832Z,86.08
2018-04-11T22:36:49.300Z,86.17
2018-04-11T22:39:17.721Z,86.14
2018-04-11T22:41:46.135Z,86.32
2018-04-11T22:44:14.592Z,86.48
2018-04-11T22:46:43.009Z,86.49
2018-04-11T22:49:11.428Z,86.66
2018-04-11T22:51:39.876Z,86.43
2018-04-11T22:54:08.340Z,86.25
2018-04-11T22:56:36.772Z,86.38
2018-04-11T22:59:05.224Z,86.53
2018-04-11T23:01:33.641Z,86.50
2018-04-11T23:04:02.060Z,86.40
2018-04-11T23:06:30.515Z,86.95
2018-04-11T23:08:58.931Z,87.08
2018-04-11T23:11:27.361Z,87.29
2018-04-11T23:13:55.836Z,86.80
2018-04-11T23:16:24.266Z,87.26
2018-04-11T23:18:52.680Z,86.85
2018-04-11T23:21:21.407Z,86.73
2018-04-11T23:23:49.837Z,86.41
2018-04-11T23:26:18.258Z,86.15
2018-04-11T23:28:46.725Z,86.05
2018-04-11T23:31:15.169Z,86.11
2018-04-11T23:33:43.589Z,86.34
2018-04-11T23:36:12.068Z,85.75
2018-04-11T23:38:40.476Z,85.60
2018-04-11T23:41:08.893Z,85.94
2018-04-11T23:43:37.349Z,85.80
2018-04-11T23:46:05.771Z,85.71
2018-04-11T23:48:34.185Z,86.09
2018-04-11T23:51:02.649Z,85.86
2018-04-11T23:53:31.065Z,85.58
2018-04-11T23:55:59.480Z,85.32
2018-04-11T23:58:27.941Z,85.29
